sensor_id;sensor_type;location;lat;lon;timestamp;pressure;altitude;pressure_sealevel;temperature;humidity
67840;BME280;54636;51.684;5.142;2022-10-17T00:00:38;101635.44;;;12.47;100.00
67840;BME280;54636;51.684;5.142;2022-10-17T00:03:04;101644.16;;;12.51;100.00
67840;BME280;54636;51.684;5.142;2022-10-17T00:05:29;101623.25;;;12.43;100.00
67840;BME280;54636;51.684;5.142;2022-10-17T00:07:55;101639.94;;;12.50;100.00
67840;BME280;54636;51.684;5.142;2022-10-17T00:10:20;101619.47;;;12.40;100.00
67840;BME280;54636;51.684;5.142;2022-10-17T00:12:46;101615.25;;;12.39;100.00
67840;BME280;54636;51.684;5.142;2022-10-17T00:15:17;101610.84;;;12.42;100.00
67840;BME280;54636;51.684;5.142;2022-10-17T00:17:42;101627.63;;;12.55;100.00
67840;BME280;54636;51.684;5.142;2022-10-17T00:20:08;101612.50;;;12.54;100.00
67840;BME280;54636;51.684;5.142;2022-10-17T00:22:34;101568.34;;;12.30;100.00
67840;BME280;54636;51.684;5.142;2022-10-17T00:24:59;101606.19;;;12.63;100.00
67840;BME280;54636;51.684;5.142;2022-10-17T00:27:24;101601.97;;;12.62;100.00
67840;BME280;54636;51.684;5.142;2022-10-17T00:29:50;101596.69;;;12.58;100.00
67840;BME280;54636;51.684;5.142;2022-10-17T00:32:17;101591.06;;;12.62;100.00
67840;BME280;54636;51.684;5.142;2022-10-17T00:34:43;101594.53;;;12.62;100.00
67840;BME280;54636;51.684;5.142;2022-10-17T00:37:08;101587.78;;;12.58;100.00
67840;BME280;54636;51.684;5.142;2022-10-17T00:39:34;101604.94;;;12.64;100.00
67840;BME280;54636;51.684;5.142;2022-10-17T00:41:59;101586.00;;;12.54;100.00
67840;BME280;54636;51.684;5.142;2022-10-17T00:46:54;101594.31;;;12.66;100.00
67840;BME280;54636;51.684;5.142;2022-10-17T00:49:22;101601.56;;;12.69;100.00
67840;BME280;54636;51.684;5.142;2022-10-17T00:54:18;101590.25;;;12.76;100.00
67840;BME280;54636;51.684;5.142;2022-10-17T00:56:46;101599.72;;;12.80;100.00
67840;BME280;54636;51.684;5.142;2022-10-17T00:59:14;101588.81;;;12.80;100.00
67840;BME280;54636;51.684;5.142;2022-10-17T01:01:42;101582.91;;;12.82;100.00
67840;BME280;54636;51.684;5.142;2022-10-17T01:04:11;101580.25;;;12.88;100.00
67840;BME280;54636;51.684;5.142;2022-10-17T01:06:37;101574.31;;;12.89;100.00
67840;BME280;54636;51.684;5.142;2022-10-17T01:09:03;101580.38;;;12.99;100.00
67840;BME280;54636;51.684;5.142;2022-10-17T01:17:45;101588.56;;;12.99;100.00
67840;BME280;54636;51.684;5.142;2022-10-17T01:22:50;101575.72;;;13.05;100.00
67840;BME280;54636;51.684;5.142;2022-10-17T01:25:28;101590.53;;;13.18;100.00
67840;BME280;54636;51.684;5.142;2022-10-17T01:28:43;101572.97;;;13.05;100.00
67840;BME280;54636;51.684;5.142;2022-10-17T01:31:13;101589.03;;;13.17;100.00
67840;BME280;54636;51.684;5.142;2022-10-17T01:34:01;101579.03;;;13.14;100.00
67840;BME280;54636;51.684;5.142;2022-10-17T01:36:55;101582.41;;;13.24;100.00
67840;BME280;54636;51.684;5.142;2022-10-17T01:39:43;101584.91;;;13.28;100.00
67840;BME280;54636;51.684;5.142;2022-10-17T01:42:16;101557.84;;;13.24;100.00
67840;BME280;54636;51.684;5.142;2022-10-17T01:44:48;101573.09;;;13.36;100.00
67840;BME280;54636;51.684;5.142;2022-10-17T01:47:18;101570.25;;;13.25;100.00
67840;BME280;54636;51.684;5.142;2022-10-17T01:49:48;101579.78;;;13.35;100.00
67840;BME280;54636;51.684;5.142;2022-10-17T01:52:19;101591.78;;;13.43;100.00
67840;BME280;54636;51.684;5.142;2022-10-17T01:55:02;101584.06;;;13.42;100.00
67840;BME280;54636;51.684;5.142;2022-10-17T01:57:51;101585.31;;;13.41;100.00
67840;BME280;54636;51.684;5.142;2022-10-17T02:00:21;101575.63;;;13.40;100.00
67840;BME280;54636;51.684;5.142;2022-10-17T02:02:48;101577.13;;;13.41;100.00
67840;BME280;54636;51.684;5.142;2022-10-17T02:05:21;101585.63;;;13.48;100.00
67840;BME280;54636;51.684;5.142;2022-10-17T02:07:51;101574.94;;;13.45;100.00
67840;BME280;54636;51.684;5.142;2022-10-17T02:10:37;101574.19;;;13.44;100.00
67840;BME280;54636;51.684;5.142;2022-10-17T02:16:24;101577.88;;;13.41;100.00
67840;BME280;54636;51.684;5.142;2022-10-17T02:32:51;101557.22;;;13.35;100.00
67840;BME280;54636;51.684;5.142;2022-10-17T02:35:19;101553.63;;;13.23;100.00
67840;BME280;54636;51.684;5.142;2022-10-17T02:37:47;101560.16;;;13.31;100.00
67840;BME280;54636;51.684;5.142;2022-10-17T02:40:14;101559.13;;;13.29;100.00
67840;BME280;54636;51.684;5.142;2022-10-17T02:42:43;101560.41;;;13.33;100.00
67840;BME280;54636;51.684;5.142;2022-10-17T02:45:10;101527.44;;;13.11;100.00
67840;BME280;54636;51.684;5.142;2022-10-17T02:47:42;101545.56;;;13.34;100.00
67840;BME280;54636;51.684;5.142;2022-10-17T02:50:10;101546.09;;;13.38;100.00
67840;BME280;54636;51.684;5.142;2022-10-17T02:52:47;101557.81;;;13.44;100.00
67840;BME280;54636;51.684;5.142;2022-10-17T02:55:18;101565.34;;;13.55;100.00
67840;BME280;54636;51.684;5.142;2022-10-17T02:57:49;101571.56;;;13.56;100.00
67840;BME280;54636;51.684;5.142;2022-10-17T03:00:16;101565.84;;;13.54;100.00
67840;BME280;54636;51.684;5.142;2022-10-17T03:02:50;101555.81;;;13.45;100.00
67840;BME280;54636;51.684;5.142;2022-10-17T03:05:21;101572.03;;;13.54;100.00
67840;BME280;54636;51.684;5.142;2022-10-17T03:07:47;101562.66;;;13.61;100.00
67840;BME280;54636;51.684;5.142;2022-10-17T03:10:13;101566.91;;;13.62;100.00
67840;BME280;54636;51.684;5.142;2022-10-17T03:12:38;101535.97;;;13.44;100.00
67840;BME280;54636;51.684;5.142;2022-10-17T03:15:04;101561.91;;;13.60;100.00
67840;BME280;54636;51.684;5.142;2022-10-17T03:17:30;101520.34;;;13.45;100.00
67840;BME280;54636;51.684;5.142;2022-10-17T03:19:55;101549.56;;;13.70;100.00
67840;BME280;54636;51.684;5.142;2022-10-17T03:22:21;101542.84;;;13.66;100.00
67840;BME280;54636;51.684;5.142;2022-10-17T03:24:46;101543.38;;;13.70;100.00
67840;BME280;54636;51.684;5.142;2022-10-17T03:27:11;101554.28;;;13.70;100.00
67840;BME280;54636;51.684;5.142;2022-10-17T03:29:37;101562.00;;;13.71;100.00
67840;BME280;54636;51.684;5.142;2022-10-17T03:32:05;101562.00;;;13.71;100.00
67840;BME280;54636;51.684;5.142;2022-10-17T03:34:31;101541.38;;;13.65;100.00
67840;BME280;54636;51.684;5.142;2022-10-17T03:36:56;101567.78;;;13.79;100.00
67840;BME280;54636;51.684;5.142;2022-10-17T03:39:21;101563.06;;;13.79;100.00
67840;BME280;54636;51.684;5.142;2022-10-17T03:41:47;101559.84;;;13.81;100.00
67840;BME280;54636;51.684;5.142;2022-10-17T03:44:12;101545.19;;;13.78;100.00
67840;BME280;54636;51.684;5.142;2022-10-17T03:46:38;101531.53;;;13.78;100.00
67840;BME280;54636;51.684;5.142;2022-10-17T03:49:03;101537.78;;;13.84;100.00
67840;BME280;54636;51.684;5.142;2022-10-17T03:51:28;101527.00;;;13.70;100.00
67840;BME280;54636;51.684;5.142;2022-10-17T03:53:54;101545.44;;;13.80;100.00
67840;BME280;54636;51.684;5.142;2022-10-17T03:56:21;101538.88;;;13.67;100.00
67840;BME280;54636;51.684;5.142;2022-10-17T03:58:47;101576.81;;;13.91;100.00
67840;BME280;54636;51.684;5.142;2022-10-17T04:01:14;101555.13;;;13.81;100.00
67840;BME280;54636;51.684;5.142;2022-10-17T04:03:40;101561.56;;;13.78;100.00
67840;BME280;54636;51.684;5.142;2022-10-17T04:06:05;101580.06;;;13.95;100.00
67840;BME280;54636;51.684;5.142;2022-10-17T04:08:33;101581.06;;;13.97;100.00
67840;BME280;54636;51.684;5.142;2022-10-17T04:11:00;101584.56;;;13.98;100.00
67840;BME280;54636;51.684;5.142;2022-10-17T04:13:26;101567.69;;;13.99;100.00
67840;BME280;54636;51.684;5.142;2022-10-17T04:16:01;101573.94;;;14.05;100.00
67840;BME280;54636;51.684;5.142;2022-10-17T04:18:27;101574.44;;;14.04;100.00
67840;BME280;54636;51.684;5.142;2022-10-17T04:20:53;101587.16;;;14.12;100.00
67840;BME280;54636;51.684;5.142;2022-10-17T04:23:18;101594.13;;;14.13;100.00
67840;BME280;54636;51.684;5.142;2022-10-17T04:25:44;101592.34;;;14.10;100.00
67840;BME280;54636;51.684;5.142;2022-10-17T04:28:09;101589.09;;;14.06;100.00
67840;BME280;54636;51.684;5.142;2022-10-17T04:30:35;101611.28;;;14.20;100.00
67840;BME280;54636;51.684;5.142;2022-10-17T04:33:01;101615.78;;;14.23;100.00
67840;BME280;54636;51.684;5.142;2022-10-17T04:35:26;101608.59;;;14.25;100.00
67840;BME280;54636;51.684;5.142;2022-10-17T04:37:51;101619.53;;;14.25;100.00
67840;BME280;54636;51.684;5.142;2022-10-17T04:40:17;101621.78;;;14.27;100.00
67840;BME280;54636;51.684;5.142;2022-10-17T04:42:42;101624.50;;;14.27;100.00
67840;BME280;54636;51.684;5.142;2022-10-17T04:45:08;101626.97;;;14.25;100.00
67840;BME280;54636;51.684;5.142;2022-10-17T04:47:33;101616.75;;;14.20;100.00
67840;BME280;54636;51.684;5.142;2022-10-17T04:49:59;101630.19;;;14.23;100.00
67840;BME280;54636;51.684;5.142;2022-10-17T04:52:24;101628.69;;;14.22;100.00
67840;BME280;54636;51.684;5.142;2022-10-17T04:54:50;101636.69;;;14.26;100.00
67840;BME280;54636;51.684;5.142;2022-10-17T04:57:16;101624.78;;;14.29;100.00
67840;BME280;54636;51.684;5.142;2022-10-17T04:59:41;101625.53;;;14.29;100.00
67840;BME280;54636;51.684;5.142;2022-10-17T05:02:07;101617.81;;;14.28;100.00
67840;BME280;54636;51.684;5.142;2022-10-17T05:04:32;101628.53;;;14.37;100.00
67840;BME280;54636;51.684;5.142;2022-10-17T05:06:58;101620.28;;;14.31;100.00
67840;BME280;54636;51.684;5.142;2022-10-17T05:09:23;101608.13;;;14.27;100.00
67840;BME280;54636;51.684;5.142;2022-10-17T05:11:48;101619.09;;;14.38;100.00
67840;BME280;54636;51.684;5.142;2022-10-17T05:14:14;101635.56;;;14.43;100.00
67840;BME280;54636;51.684;5.142;2022-10-17T05:16:39;101631.78;;;14.41;100.00
67840;BME280;54636;51.684;5.142;2022-10-17T05:19:05;101642.19;;;14.37;100.00
67840;BME280;54636;51.684;5.142;2022-10-17T05:21:30;101633.47;;;14.33;100.00
67840;BME280;54636;51.684;5.142;2022-10-17T05:23:56;101643.22;;;14.39;100.00
67840;BME280;54636;51.684;5.142;2022-10-17T05:26:22;101646.16;;;14.36;100.00
67840;BME280;54636;51.684;5.142;2022-10-17T05:28:48;101643.97;;;14.40;100.00
67840;BME280;54636;51.684;5.142;2022-10-17T05:31:13;101624.25;;;14.30;100.00
67840;BME280;54636;51.684;5.142;2022-10-17T05:33:39;101632.03;;;14.37;100.00
67840;BME280;54636;51.684;5.142;2022-10-17T05:36:05;101643.00;;;14.43;100.00
67840;BME280;54636;51.684;5.142;2022-10-17T05:38:31;101658.47;;;14.52;100.00
67840;BME280;54636;51.684;5.142;2022-10-17T05:40:57;101657.72;;;14.51;100.00
67840;BME280;54636;51.684;5.142;2022-10-17T05:43:23;101652.00;;;14.49;100.00
67840;BME280;54636;51.684;5.142;2022-10-17T05:45:49;101657.97;;;14.47;100.00
67840;BME280;54636;51.684;5.142;2022-10-17T05:48:14;101656.47;;;14.46;100.00
67840;BME280;54636;51.684;5.142;2022-10-17T05:50:40;101651.22;;;14.43;100.00
67840;BME280;54636;51.684;5.142;2022-10-17T05:53:05;101643.44;;;14.36;100.00
67840;BME280;54636;51.684;5.142;2022-10-17T05:55:30;101652.22;;;14.45;100.00
67840;BME280;54636;51.684;5.142;2022-10-17T05:57:56;101661.84;;;14.41;100.00
67840;BME280;54636;51.684;5.142;2022-10-17T06:00:22;101658.94;;;14.44;100.00
67840;BME280;54636;51.684;5.142;2022-10-17T06:02:48;101659.41;;;14.43;100.00
67840;BME280;54636;51.684;5.142;2022-10-17T06:05:14;101636.25;;;14.38;100.00
67840;BME280;54636;51.684;5.142;2022-10-17T06:07:39;101654.00;;;14.48;100.00
67840;BME280;54636;51.684;5.142;2022-10-17T06:10:08;101651.53;;;14.50;100.00
67840;BME280;54636;51.684;5.142;2022-10-17T06:12:34;101651.25;;;14.48;100.00
67840;BME280;54636;51.684;5.142;2022-10-17T06:14:59;101663.72;;;14.55;100.00
67840;BME280;54636;51.684;5.142;2022-10-17T06:17:25;101665.75;;;14.60;100.00
67840;BME280;54636;51.684;5.142;2022-10-17T06:19:50;101669.97;;;14.61;100.00
67840;BME280;54636;51.684;5.142;2022-10-17T06:22:15;101669.97;;;14.61;100.00
67840;BME280;54636;51.684;5.142;2022-10-17T06:24:41;101669.75;;;14.65;100.00
67840;BME280;54636;51.684;5.142;2022-10-17T06:27:07;101678.47;;;14.69;100.00
67840;BME280;54636;51.684;5.142;2022-10-17T06:29:32;101686.47;;;14.72;100.00
67840;BME280;54636;51.684;5.142;2022-10-17T06:31:58;101688.47;;;14.77;100.00
67840;BME280;54636;51.684;5.142;2022-10-17T06:34:23;101691.75;;;14.81;100.00
67840;BME280;54636;51.684;5.142;2022-10-17T06:36:48;101699.22;;;14.87;100.00
67840;BME280;54636;51.684;5.142;2022-10-17T06:39:14;101704.00;;;14.92;100.00
67840;BME280;54636;51.684;5.142;2022-10-17T06:41:40;101705.00;;;14.94;100.00
67840;BME280;54636;51.684;5.142;2022-10-17T06:44:06;101689.56;;;14.97;100.00
67840;BME280;54636;51.684;5.142;2022-10-17T06:46:36;101703.53;;;15.04;100.00
67840;BME280;54636;51.684;5.142;2022-10-17T06:49:02;101708.03;;;15.07;100.00
67840;BME280;54636;51.684;5.142;2022-10-17T06:51:29;101709.53;;;15.08;100.00
67840;BME280;54636;51.684;5.142;2022-10-17T06:53:56;101711.50;;;15.08;100.00
67840;BME280;54636;51.684;5.142;2022-10-17T06:56:22;101705.78;;;15.06;100.00
67840;BME280;54636;51.684;5.142;2022-10-17T06:58:48;101699.81;;;15.07;100.00
67840;BME280;54636;51.684;5.142;2022-10-17T07:01:15;101707.34;;;15.18;100.00
67840;BME280;54636;51.684;5.142;2022-10-17T07:03:41;101705.88;;;15.23;100.00
67840;BME280;54636;51.684;5.142;2022-10-17T07:06:11;101705.41;;;15.30;100.00
67840;BME280;54636;51.684;5.142;2022-10-17T07:08:36;101703.19;;;15.34;100.00
67840;BME280;54636;51.684;5.142;2022-10-17T07:11:28;101712.69;;;15.44;100.00
67840;BME280;54636;51.684;5.142;2022-10-17T07:13:54;101709.19;;;15.43;100.00
67840;BME280;54636;51.684;5.142;2022-10-17T07:16:19;101706.97;;;15.53;100.00
67840;BME280;54636;51.684;5.142;2022-10-17T07:18:51;101721.69;;;15.56;100.00
67840;BME280;54636;51.684;5.142;2022-10-17T07:21:17;101734.16;;;15.62;100.00
67840;BME280;54636;51.684;5.142;2022-10-17T07:23:42;101727.44;;;15.63;100.00
67840;BME280;54636;51.684;5.142;2022-10-17T07:26:10;101740.63;;;15.65;100.00
67840;BME280;54636;51.684;5.142;2022-10-17T07:28:38;101745.84;;;15.63;100.00
67840;BME280;54636;51.684;5.142;2022-10-17T07:31:10;101743.13;;;15.57;100.00
67840;BME280;54636;51.684;5.142;2022-10-17T07:33:36;101790.94;;;15.67;100.00
67840;BME280;54636;51.684;5.142;2022-10-17T07:36:03;101824.84;;;15.75;100.00
67840;BME280;54636;51.684;5.142;2022-10-17T07:38:30;101854.25;;;15.80;100.00
67840;BME280;54636;51.684;5.142;2022-10-17T07:40:56;101885.38;;;15.83;100.00
67840;BME280;54636;51.684;5.142;2022-10-17T07:43:23;101906.09;;;15.90;100.00
67840;BME280;54636;51.684;5.142;2022-10-17T07:45:49;101890.91;;;15.94;100.00
67840;BME280;54636;51.684;5.142;2022-10-17T07:48:15;101853.50;;;15.80;100.00
67840;BME280;54636;51.684;5.142;2022-10-17T07:50:41;101873.44;;;15.86;100.00
67840;BME280;54636;51.684;5.142;2022-10-17T07:53:06;101857.22;;;15.77;100.00
67840;BME280;54636;51.684;5.142;2022-10-17T07:55:31;101862.94;;;15.73;100.00
67840;BME280;54636;51.684;5.142;2022-10-17T07:57:57;101835.00;;;15.58;100.00
67840;BME280;54636;51.684;5.142;2022-10-17T08:00:25;101839.44;;;15.56;100.00
67840;BME280;54636;51.684;5.142;2022-10-17T08:02:50;101839.66;;;15.52;100.00
67840;BME280;54636;51.684;5.142;2022-10-17T08:05:15;101840.22;;;15.62;100.00
67840;BME280;54636;51.684;5.142;2022-10-17T08:07:41;101853.41;;;15.58;100.00
67840;BME280;54636;51.684;5.142;2022-10-17T08:10:07;101861.81;;;15.54;100.00
67840;BME280;54636;51.684;5.142;2022-10-17T08:12:32;101865.44;;;15.34;100.00
67840;BME280;54636;51.684;5.142;2022-10-17T08:14:59;101858.41;;;15.28;100.00
67840;BME280;54636;51.684;5.142;2022-10-17T08:17:25;101917.63;;;15.57;100.00
67840;BME280;54636;51.684;5.142;2022-10-17T08:19:51;101931.31;;;15.57;100.00
67840;BME280;54636;51.684;5.142;2022-10-17T08:22:16;101961.19;;;15.60;100.00
67840;BME280;54636;51.684;5.142;2022-10-17T08:24:41;101968.91;;;15.62;100.00
67840;BME280;54636;51.684;5.142;2022-10-17T08:27:07;101970.69;;;15.65;100.00
67840;BME280;54636;51.684;5.142;2022-10-17T08:29:36;101946.94;;;15.51;100.00
67840;BME280;54636;51.684;5.142;2022-10-17T08:32:02;101969.44;;;15.66;100.00
67840;BME280;54636;51.684;5.142;2022-10-17T08:34:28;101936.81;;;15.62;100.00
67840;BME280;54636;51.684;5.142;2022-10-17T08:36:53;101940.56;;;15.65;100.00
67840;BME280;54636;51.684;5.142;2022-10-17T08:39:18;101952.00;;;15.63;100.00
67840;BME280;54636;51.684;5.142;2022-10-17T08:47:10;101871.34;;;15.59;100.00
67840;BME280;54636;51.684;5.142;2022-10-17T08:49:38;101864.84;;;15.62;100.00
67840;BME280;54636;51.684;5.142;2022-10-17T08:52:16;101885.81;;;15.70;100.00
67840;BME280;54636;51.684;5.142;2022-10-17T08:54:44;101887.03;;;15.64;100.00
67840;BME280;54636;51.684;5.142;2022-10-17T08:57:15;101865.59;;;15.57;100.00
67840;BME280;54636;51.684;5.142;2022-10-17T08:59:48;101896.81;;;15.76;100.00
67840;BME280;54636;51.684;5.142;2022-10-17T09:05:23;101923.97;;;15.79;100.00
67840;BME280;54636;51.684;5.142;2022-10-17T09:08:19;101918.41;;;15.68;100.00
67840;BME280;54636;51.684;5.142;2022-10-17T09:11:08;101943.16;;;15.79;100.00
67840;BME280;54636;51.684;5.142;2022-10-17T09:13:56;101988.97;;;15.79;100.00
67840;BME280;54636;51.684;5.142;2022-10-17T09:16:41;101982.97;;;15.75;100.00
67840;BME280;54636;51.684;5.142;2022-10-17T09:19:31;101949.25;;;15.63;100.00
67840;BME280;54636;51.684;5.142;2022-10-17T09:22:20;101951.84;;;15.78;100.00
67840;BME280;54636;51.684;5.142;2022-10-17T09:24:49;101922.72;;;15.80;100.00
67840;BME280;54636;51.684;5.142;2022-10-17T09:30:28;101915.28;;;15.87;100.00
67840;BME280;54636;51.684;5.142;2022-10-17T09:32:56;101895.03;;;15.73;100.00
67840;BME280;54636;51.684;5.142;2022-10-17T09:35:23;101912.31;;;15.90;100.00
67840;BME280;54636;51.684;5.142;2022-10-17T09:37:49;101903.06;;;15.82;100.00
67840;BME280;54636;51.684;5.142;2022-10-17T09:40:21;101919.59;;;15.99;100.00
67840;BME280;54636;51.684;5.142;2022-10-17T09:42:49;101919.84;;;16.01;100.00
67840;BME280;54636;51.684;5.142;2022-10-17T09:45:23;101930.06;;;16.00;100.00
67840;BME280;54636;51.684;5.142;2022-10-17T09:50:51;101931.06;;;16.03;100.00
67840;BME280;54636;51.684;5.142;2022-10-17T09:53:21;101936.03;;;15.99;100.00
67840;BME280;54636;51.684;5.142;2022-10-17T09:55:51;101943.28;;;16.02;100.00
67840;BME280;54636;51.684;5.142;2022-10-17T09:58:20;101933.56;;;16.06;100.00
67840;BME280;54636;51.684;5.142;2022-10-17T10:00:47;101942.84;;;16.14;100.00
67840;BME280;54636;51.684;5.142;2022-10-17T10:03:25;101937.34;;;16.14;100.00
67840;BME280;54636;51.684;5.142;2022-10-17T10:06:17;101944.38;;;16.21;100.00
67840;BME280;54636;51.684;5.142;2022-10-17T10:08:54;101950.84;;;16.24;100.00
67840;BME280;54636;51.684;5.142;2022-10-17T10:12:17;101957.84;;;16.30;100.00
67840;BME280;54636;51.684;5.142;2022-10-17T10:14:36;101957.34;;;16.32;100.00
67840;BME280;54636;51.684;5.142;2022-10-17T10:17:08;101954.56;;;16.21;100.00
67840;BME280;54636;51.684;5.142;2022-10-17T10:19:50;101954.31;;;16.19;100.00
67840;BME280;54636;51.684;5.142;2022-10-17T10:22:18;101990.75;;;16.36;100.00
67840;BME280;54636;51.684;5.142;2022-10-17T10:24:43;102003.47;;;16.39;100.00
67840;BME280;54636;51.684;5.142;2022-10-17T10:27:15;102016.19;;;16.36;100.00
67840;BME280;54636;51.684;5.142;2022-10-17T10:29:47;102010.66;;;16.31;100.00
67840;BME280;54636;51.684;5.142;2022-10-17T10:32:22;102033.88;;;16.35;100.00
67840;BME280;54636;51.684;5.142;2022-10-17T10:34:55;102036.38;;;16.39;100.00
67840;BME280;54636;51.684;5.142;2022-10-17T10:37:28;102049.09;;;16.36;100.00
67840;BME280;54636;51.684;5.142;2022-10-17T10:39:58;102064.03;;;16.35;100.00
67840;BME280;54636;51.684;5.142;2022-10-17T10:42:29;102054.50;;;16.25;100.00
67840;BME280;54636;51.684;5.142;2022-10-17T10:45:02;102049.53;;;16.24;100.00
67840;BME280;54636;51.684;5.142;2022-10-17T10:47:30;102075.03;;;16.41;100.00
67840;BME280;54636;51.684;5.142;2022-10-17T10:50:08;102073.53;;;16.40;100.00
67840;BME280;54636;51.684;5.142;2022-10-17T10:52:49;102058.03;;;16.31;100.00
67840;BME280;54636;51.684;5.142;2022-10-17T10:55:26;102082.31;;;16.50;100.00
67840;BME280;54636;51.684;5.142;2022-10-17T10:57:57;102082.34;;;16.55;100.00
67840;BME280;54636;51.684;5.142;2022-10-17T11:00:26;102079.44;;;16.64;100.00
67840;BME280;54636;51.684;5.142;2022-10-17T11:03:16;102084.47;;;16.77;100.00
67840;BME280;54636;51.684;5.142;2022-10-17T11:08:23;102081.94;;;16.68;100.00
67840;BME280;54636;51.684;5.142;2022-10-17T11:11:06;102091.19;;;16.70;100.00
67840;BME280;54636;51.684;5.142;2022-10-17T11:13:48;102088.13;;;16.63;100.00
67840;BME280;54636;51.684;5.142;2022-10-17T11:19:02;102094.06;;;16.56;100.00
67840;BME280;54636;51.684;5.142;2022-10-17T11:21:35;102107.06;;;16.61;100.00
67840;BME280;54636;51.684;5.142;2022-10-17T11:24:10;102098.31;;;16.57;100.00
67840;BME280;54636;51.684;5.142;2022-10-17T11:26:42;102110.34;;;16.65;100.00
67840;BME280;54636;51.684;5.142;2022-10-17T11:29:09;102109.06;;;16.60;100.00
67840;BME280;54636;51.684;5.142;2022-10-17T11:31:40;102116.38;;;16.69;100.00
67840;BME280;54636;51.684;5.142;2022-10-17T11:34:13;102124.84;;;16.71;100.00
67840;BME280;54636;51.684;5.142;2022-10-17T11:36:45;102126.88;;;16.76;100.00
67840;BME280;54636;51.684;5.142;2022-10-17T11:39:29;102132.41;;;16.87;100.00
67840;BME280;54636;51.684;5.142;2022-10-17T11:42:01;102126.44;;;17.00;100.00
67840;BME280;54636;51.684;5.142;2022-10-17T11:44:35;102128.97;;;17.03;100.00
67840;BME280;54636;51.684;5.142;2022-10-17T11:47:27;102124.97;;;17.04;100.00
67840;BME280;54636;51.684;5.142;2022-10-17T11:52:50;102119.28;;;17.13;100.00
67840;BME280;54636;51.684;5.142;2022-10-17T11:55:21;102122.81;;;17.31;100.00
67840;BME280;54636;51.684;5.142;2022-10-17T12:06:16;102140.81;;;17.60;100.00
67840;BME280;54636;51.684;5.142;2022-10-17T12:11:54;102128.59;;;17.44;100.00
67840;BME280;54636;51.684;5.142;2022-10-17T12:14:46;102137.56;;;17.56;100.00
67840;BME280;54636;51.684;5.142;2022-10-17T12:25:22;102140.59;;;17.63;100.00
67840;BME280;54636;51.684;5.142;2022-10-17T12:27:49;102143.34;;;17.63;100.00
67840;BME280;54636;51.684;5.142;2022-10-17T12:30:23;102132.59;;;17.60;100.00
67840;BME280;54636;51.684;5.142;2022-10-17T12:32:53;102150.13;;;17.68;100.00
67840;BME280;54636;51.684;5.142;2022-10-17T12:35:22;102123.59;;;17.48;100.00
67840;BME280;54636;51.684;5.142;2022-10-17T12:45:56;102153.31;;;17.61;100.00
67840;BME280;54636;51.684;5.142;2022-10-17T12:51:09;102168.31;;;17.60;100.00
67840;BME280;54636;51.684;5.142;2022-10-17T12:56:09;102159.31;;;17.54;100.00
67840;BME280;54636;51.684;5.142;2022-10-17T12:58:35;102183.53;;;17.55;100.00
67840;BME280;54636;51.684;5.142;2022-10-17T13:01:01;102178.78;;;17.44;100.00
67840;BME280;54636;51.684;5.142;2022-10-17T13:03:30;102190.78;;;17.53;100.00
67840;BME280;54636;51.684;5.142;2022-10-17T13:05:58;102207.00;;;17.56;100.00
67840;BME280;54636;51.684;5.142;2022-10-17T13:10:59;102192.75;;;17.41;100.00
67840;BME280;54636;51.684;5.142;2022-10-17T13:13:40;102195.47;;;17.30;100.00
67840;BME280;54636;51.684;5.142;2022-10-17T13:16:06;102214.97;;;17.37;100.00
67840;BME280;54636;51.684;5.142;2022-10-17T13:18:32;102216.44;;;17.33;100.00
67840;BME280;54636;51.684;5.142;2022-10-17T13:21:20;102207.16;;;17.25;100.00
67840;BME280;54636;51.684;5.142;2022-10-17T13:23:46;102227.69;;;17.35;100.00
67840;BME280;54636;51.684;5.142;2022-10-17T13:26:16;102219.19;;;17.33;100.00
67840;BME280;54636;51.684;5.142;2022-10-17T13:29:05;102227.44;;;17.33;100.00
67840;BME280;54636;51.684;5.142;2022-10-17T13:31:36;102226.69;;;17.32;100.00
67840;BME280;54636;51.684;5.142;2022-10-17T13:34:04;102213.41;;;17.25;100.00
67840;BME280;54636;51.684;5.142;2022-10-17T13:36:31;102248.69;;;17.43;100.00
67840;BME280;54636;51.684;5.142;2022-10-17T13:38:59;102248.47;;;17.47;100.00
67840;BME280;54636;51.684;5.142;2022-10-17T13:41:30;102226.44;;;17.36;100.00
67840;BME280;54636;51.684;5.142;2022-10-17T13:44:00;102252.22;;;17.50;100.00
67840;BME280;54636;51.684;5.142;2022-10-17T13:46:31;102251.22;;;17.53;100.00
67840;BME280;54636;51.684;5.142;2022-10-17T13:48:59;102245.22;;;17.49;100.00
67840;BME280;54636;51.684;5.142;2022-10-17T13:51:33;102257.72;;;17.55;100.00
67840;BME280;54636;51.684;5.142;2022-10-17T13:53:58;102255.22;;;17.57;100.00
67840;BME280;54636;51.684;5.142;2022-10-17T13:56:25;102251.72;;;17.57;100.00
67840;BME280;54636;51.684;5.142;2022-10-17T13:58:56;102260.97;;;17.59;100.00
67840;BME280;54636;51.684;5.142;2022-10-17T14:01:24;102255.72;;;17.56;100.00
67840;BME280;54636;51.684;5.142;2022-10-17T14:03:50;102259.03;;;17.65;100.00
67840;BME280;54636;51.684;5.142;2022-10-17T14:06:28;102259.53;;;17.69;100.00
67840;BME280;54636;51.684;5.142;2022-10-17T14:09:02;102270.53;;;17.75;100.00
67840;BME280;54636;51.684;5.142;2022-10-17T14:11:42;102270.31;;;17.78;100.00
67840;BME280;54636;51.684;5.142;2022-10-17T14:14:22;102260.31;;;17.75;100.00
67840;BME280;54636;51.684;5.142;2022-10-17T14:16:48;102262.03;;;17.73;100.00
67840;BME280;54636;51.684;5.142;2022-10-17T14:19:34;102258.03;;;17.68;100.00
67840;BME280;54636;51.684;5.142;2022-10-17T14:22:34;102266.56;;;17.87;100.00